METAR Data
IDs: Format: Raw Decoded Include TAF

Data at: 0846 UTC 20 Sep 2018

KAIO 200835Z AUTO 10SM CLR 24/21 A2983 RMK AO2
KAIO 200815Z AUTO 10SM CLR 24/21 A2984 RMK AO2
KAIO 200755Z AUTO 10SM CLR 24/21 A2984 RMK AO2
KAIO 200735Z AUTO 10SM CLR 24/21 A2984 RMK AO2
KAIO 200715Z AUTO 10SM CLR 25/21 A2984 RMK AO2
KAIO 200655Z AUTO 10SM CLR 25/21 A2984 RMK AO2
KAIO 200635Z AUTO 10SM CLR 25/21 A2984 RMK AO2
KAIO 200615Z AUTO 18007KT 10SM CLR 25/21 A2984 RMK AO2
KAIO 200555Z AUTO 19007KT 10SM CLR 25/21 A2985 RMK AO2
KAIO 200535Z AUTO 19006KT 10SM CLR 25/21 A2985 RMK AO2
KAIO 200515Z AUTO 18008KT 10SM CLR 25/21 A2985 RMK AO2
KAIO 200455Z AUTO 19008KT 10SM CLR 25/21 A2985 RMK AO2
KAIO 200435Z AUTO 19008KT 10SM CLR 26/21 A2985 RMK AO2
KAIO 200415Z AUTO 19008KT 10SM SCT090 26/21 A2985 RMK AO2
KAIO 200355Z AUTO 19007KT 10SM BKN095 25/21 A2984 RMK AO2
KAIO 200335Z AUTO 20003KT 10SM SCT095 25/21 A2984 RMK AO2
KAIO 200315Z AUTO 19005KT 10SM SCT100 26/21 A2984 RMK AO2
KAIO 200255Z AUTO 10SM SCT095 26/21 A2984 RMK AO2
KAIO 200235Z AUTO 10SM SCT070 SCT080 BKN090 27/22 A2984 RMK AO2
KAIO 200215Z AUTO 10SM OVC070 27/22 A2984 RMK AO2
KAIO 200155Z AUTO 10SM BKN065 BKN075 BKN095 28/23 A2984 RMK AO2
KAIO 200135Z AUTO 13004KT 10SM BKN065 BKN090 28/24 A2983 RMK AO2
KAIO 192215Z AUTO 13009G14KT 10SM CLR 30/23 A2982 RMK AO2
KAIO 192155Z AUTO 11010KT 10SM CLR 29/23 A2982 RMK AO2
KAIO 192135Z AUTO 11009KT 10SM CLR 29/23 A2983 RMK AO2
KAIO 192115Z AUTO 09010G16KT 10SM CLR 29/23 A2983 RMK AO2
KAIO 192055Z AUTO 12010KT 080V140 10SM CLR 29/23 A2984 RMK AO2
KAIO 192035Z AUTO 10011KT 10SM CLR 29/23 A2985 RMK AO2
KAIO 192015Z AUTO 11010G16KT 10SM CLR 29/23 A2986 RMK AO2
KAIO 191955Z AUTO 08012KT 10SM CLR 28/23 A2986 RMK AO2
KAIO 191935Z AUTO 10009KT 10SM FEW070 FEW080 27/23 A2988 RMK AO2
KAIO 191915Z AUTO 09010KT 10SM CLR 28/23 A2989 RMK AO2
KAIO 191855Z AUTO 11008G14KT 10SM FEW060 FEW085 27/23 A2990 RMK AO2
KAIO 191835Z AUTO 11010KT 10SM CLR 26/22 A2991 RMK AO2
KAIO 191815Z AUTO 11011KT 10SM FEW016 FEW065 26/22 A2992 RMK AO2
KAIO 191755Z AUTO 10010KT 10SM FEW015 25/22 A2993 RMK AO2
KAIO 191735Z AUTO 10012KT 10SM SCT013 24/22 A2994 RMK AO2
KAIO 191715Z AUTO 11010KT 10SM SCT012 24/22 A2994 RMK AO2
KAIO 191655Z AUTO 09011G16KT 9SM SCT009 22/21 A2994 RMK AO2
KAIO 191635Z AUTO 09011KT 9SM BKN006 22/21 A2995 RMK AO2
KAIO 191615Z AUTO 10011KT 9SM OVC005 21/21 A2995 RMK AO2
KAIO 191555Z AUTO 07010KT 8SM OVC004 21/20 A2995 RMK AO2
KAIO 191535Z AUTO 08011KT 5SM BR OVC004 20/20 A2995 RMK AO2
KAIO 191515Z AUTO 08007KT 3SM BR OVC003 20/20 A2994 RMK AO2
KAIO 191455Z AUTO 06007KT 2SM BR OVC003 21/20 A2994 RMK AO2
KAIO 191435Z AUTO 05007G13KT 2 1/2SM BR OVC003 20/20 A2994 RMK AO2
KAIO 191415Z AUTO 04007KT 1 1/2SM BR OVC003 20/20 A2994 RMK AO2
KAIO 191355Z AUTO 02009KT 1SM BR OVC003 20/20 A2995 RMK AO2
KAIO 191335Z AUTO 02005G13KT 2 1/2SM BR OVC003 21/20 A2994 RMK AO2
KAIO 191315Z AUTO 15004KT 2 1/2SM BR OVC003 20/20 A2992 RMK AO2
KAIO 191255Z AUTO 13005KT 1 3/4SM BR OVC002 20/20 A2991 RMK AO2
KAIO 191235Z AUTO 13003KT 1 1/2SM BR OVC002 20/20 A2992 RMK AO2
KAIO 191215Z AUTO 14005KT 1SM BR OVC002 20/20 A2991 RMK AO2
KAIO 191155Z AUTO 14003KT 1 1/4SM BR OVC002 20/20 A2991 RMK AO2
KAIO 191135Z AUTO 15004KT 1SM BR OVC002 20/19 A2991 RMK AO2
KAIO 191115Z AUTO 13006KT 1SM BR OVC002 19/19 A2990 RMK AO2
KAIO 191055Z AUTO 15005KT 1SM BR OVC002 19/19 A2990 RMK AO2
KAIO 191035Z AUTO VRB05KT 1 1/2SM BR OVC002 19/19 A2990 RMK AO2
KAIO 191015Z AUTO 10005KT 1 1/2SM BR OVC002 19/19 A2989 RMK AO2
KAIO 190955Z AUTO 11005KT 1 3/4SM BR OVC002 19/19 A2989 RMK AO2
KAIO 190935Z AUTO 10007KT 1 1/2SM BR OVC002 19/19 A2990 RMK AO2
KAIO 190915Z AUTO 09008KT 2SM BR OVC002 19/19 A2990 RMK AO2
KAIO 190855Z AUTO VRB06KT 4SM BR OVC003 19/19 A2990 RMK AO2
KAIO 190835Z AUTO 09006KT 5SM BR OVC003 19/19 A2990 RMK AO2
KAIO 190815Z AUTO VRB03KT 7SM BKN004 BKN042 OVC085 19/19 A2991 RMK AO2
KAIO 190755Z AUTO 06004KT 9SM FEW004 SCT042 OVC085 19/19 A2992 RMK AO2 P0001
KAIO 190735Z AUTO 06008KT 10SM SCT045 BKN050 BKN085 19/18 A2992 RMK AO2
KAIO 190715Z AUTO 07007KT 10SM BKN049 BKN060 OVC075 19/18 A2992 RMK AO2
KAIO 190655Z AUTO 09009KT 10SM FEW004 SCT027 BKN050 19/18 A2992 RMK AO2 P0002
KAIO 190635Z AUTO 10009G14KT 1 3/4SM -RA BKN009 OVC028 18/18 A2992 RMK AO2
KAIO 190615Z AUTO 34008KT +RA BKN010 BKN038 OVC080 19/18 A2996 RMK AO2
KAIO 190555Z AUTO 00000KT 9SM FEW015 BKN070 OVC090 18/18 A2994 RMK AO2
KAIO 190535Z AUTO 01005KT 10SM SCT060 BKN070 OVC100 19/18 A2994 RMK AO2
KAIO 190515Z AUTO 05008KT 10SM FEW050 SCT065 BKN100 18/18 A2993 RMK AO2
KAIO 190455Z AUTO 07006KT 10SM FEW055 BKN070 OVC110 18/18 A2993 RMK AO2
KAIO 190435Z AUTO 34007KT 10SM FEW060 BKN075 OVC120 18/18 A2995 RMK AO2
KAIO 190415Z AUTO 00000KT 9SM FEW041 FEW055 SCT075 18/18 A2994 RMK AO2
KAIO 190355Z AUTO 03004KT 10SM FEW100 18/18 A2992 RMK AO2
KAIO 190335Z AUTO 05005KT 10SM FEW100 18/18 A2992 RMK AO2
KAIO 190315Z AUTO 05007KT 10SM CLR 18/18 A2992 RMK AO2
KAIO 190255Z AUTO 04005KT 10SM CLR 18/18 A2992 RMK AO2
KAIO 190235Z AUTO 06004KT 9SM FEW090 18/18 A2992 RMK AO2
KAIO 190215Z AUTO 00000KT 10SM FEW090 17/17 A2992 RMK AO2
KAIO 190155Z AUTO 03004KT 9SM CLR 17/17 A2990 RMK AO2
KAIO 190135Z AUTO 01003KT 10SM CLR 18/17 A2990 RMK AO2
KAIO 190115Z AUTO 01003KT 10SM CLR 18/18 A2990 RMK AO2
KAIO 190055Z AUTO 00000KT 10SM CLR 19/18 A2989 RMK AO2
KAIO 190035Z AUTO VRB04KT 10SM CLR 19/18 A2989 RMK AO2
KAIO 190015Z AUTO 18006KT 10SM CLR 20/19 A2990 RMK AO2
KAIO 182355Z AUTO 17003KT 10SM CLR 20/18 A2990 RMK AO2 P0002
KAIO 182335Z AUTO 14008KT 10SM CLR 20/18 A2987 RMK AO2
KAIO 182315Z AUTO 15008G20KT 10SM CLR 19/18 A2987 RMK AO2
KAIO 182255Z AUTO 12012G18KT 4SM -RA CLR 19/18 A2985 RMK AO2 P0003
KAIO 182235Z AUTO 35004KT 7SM -RA FEW041 FEW055 19/18 A2996 RMK AO2
KAIO 182215Z AUTO VRB05G16KT 3SM -RA CLR 19/18 A2994 RMK AO2
KAIO 182155Z AUTO 10009G15KT 8SM -RA FEW049 FEW055 FEW065 19/18 A2995 RMK AO2
KAIO 182135Z AUTO 11014G21KT 10SM FEW090 FEW110 20/17 A2993 RMK AO2
KAIO 182115Z AUTO 07012G18KT 10SM SCT065 SCT075 BKN085 20/17 A2994 RMK AO2
KAIO 182055Z AUTO 07012G21KT 050V110 10SM SCT065 SCT075 SCT080 20/17 A2997 RMK AO2